sensor_id;sensor_type;location;lat;lon;timestamp;temperature;humidity
37658;DHT22;23500;53.268;8.308;2023-02-04T00:01:35;15.90;65.80
37658;DHT22;23500;53.268;8.308;2023-02-04T00:04:00;15.90;65.90
37658;DHT22;23500;53.268;8.308;2023-02-04T00:06:27;15.90;65.90
37658;DHT22;23500;53.268;8.308;2023-02-04T00:08:53;15.90;66.20
37658;DHT22;23500;53.268;8.308;2023-02-04T00:11:18;15.90;66.20
37658;DHT22;23500;53.268;8.308;2023-02-04T00:13:44;15.80;66.30
37658;DHT22;23500;53.268;8.308;2023-02-04T00:16:10;15.80;66.20
37658;DHT22;23500;53.268;8.308;2023-02-04T00:18:35;15.80;66.20
37658;DHT22;23500;53.268;8.308;2023-02-04T00:21:01;15.80;66.20
37658;DHT22;23500;53.268;8.308;2023-02-04T00:23:27;15.80;66.20
37658;DHT22;23500;53.268;8.308;2023-02-04T00:25:52;15.80;66.30
37658;DHT22;23500;53.268;8.308;2023-02-04T00:28:18;15.70;66.40
37658;DHT22;23500;53.268;8.308;2023-02-04T00:30:44;15.70;66.30
37658;DHT22;23500;53.268;8.308;2023-02-04T00:33:10;15.70;66.40
37658;DHT22;23500;53.268;8.308;2023-02-04T00:35:35;15.70;66.60
37658;DHT22;23500;53.268;8.308;2023-02-04T00:38:05;15.70;66.70
37658;DHT22;23500;53.268;8.308;2023-02-04T00:40:31;15.70;66.50
37658;DHT22;23500;53.268;8.308;2023-02-04T00:42:56;15.70;66.70
37658;DHT22;23500;53.268;8.308;2023-02-04T00:45:22;15.70;66.60
37658;DHT22;23500;53.268;8.308;2023-02-04T00:47:48;15.60;66.50
37658;DHT22;23500;53.268;8.308;2023-02-04T00:50:14;15.60;66.70
37658;DHT22;23500;53.268;8.308;2023-02-04T00:52:40;15.60;66.70
37658;DHT22;23500;53.268;8.308;2023-02-04T00:55:06;15.60;66.50
37658;DHT22;23500;53.268;8.308;2023-02-04T00:57:33;15.60;66.80
37658;DHT22;23500;53.268;8.308;2023-02-04T00:59:59;15.60;66.70
37658;DHT22;23500;53.268;8.308;2023-02-04T01:02:24;15.60;66.70
37658;DHT22;23500;53.268;8.308;2023-02-04T01:04:50;15.60;66.80
37658;DHT22;23500;53.268;8.308;2023-02-04T01:07:16;15.60;66.90
37658;DHT22;23500;53.268;8.308;2023-02-04T01:09:42;15.50;67.10
37658;DHT22;23500;53.268;8.308;2023-02-04T01:12:08;15.50;67.00
37658;DHT22;23500;53.268;8.308;2023-02-04T01:14:34;15.50;67.10
37658;DHT22;23500;53.268;8.308;2023-02-04T01:16:59;15.50;67.00
37658;DHT22;23500;53.268;8.308;2023-02-04T01:19:25;15.50;67.30
37658;DHT22;23500;53.268;8.308;2023-02-04T01:21:51;15.50;67.10
37658;DHT22;23500;53.268;8.308;2023-02-04T01:24:16;15.50;67.40
37658;DHT22;23500;53.268;8.308;2023-02-04T01:26:42;15.50;67.10
37658;DHT22;23500;53.268;8.308;2023-02-04T01:29:07;15.40;67.00
37658;DHT22;23500;53.268;8.308;2023-02-04T01:31:33;15.40;67.30
37658;DHT22;23500;53.268;8.308;2023-02-04T01:33:59;15.40;67.50
37658;DHT22;23500;53.268;8.308;2023-02-04T01:36:26;15.40;67.50
37658;DHT22;23500;53.268;8.308;2023-02-04T01:38:51;15.40;67.50
37658;DHT22;23500;53.268;8.308;2023-02-04T01:41:18;15.40;67.30
37658;DHT22;23500;53.268;8.308;2023-02-04T01:43:47;15.40;67.50
37658;DHT22;23500;53.268;8.308;2023-02-04T01:46:13;15.40;67.50
37658;DHT22;23500;53.268;8.308;2023-02-04T01:48:39;15.40;67.40
37658;DHT22;23500;53.268;8.308;2023-02-04T01:51:08;15.40;67.60
37658;DHT22;23500;53.268;8.308;2023-02-04T01:53:36;15.30;67.50
37658;DHT22;23500;53.268;8.308;2023-02-04T01:56:14;15.30;67.50
37658;DHT22;23500;53.268;8.308;2023-02-04T01:58:41;15.30;67.80
37658;DHT22;23500;53.268;8.308;2023-02-04T02:01:12;15.30;67.50
37658;DHT22;23500;53.268;8.308;2023-02-04T02:03:38;15.30;67.70
37658;DHT22;23500;53.268;8.308;2023-02-04T02:06:04;15.30;67.60
37658;DHT22;23500;53.268;8.308;2023-02-04T02:08:31;15.30;67.80
37658;DHT22;23500;53.268;8.308;2023-02-04T02:10:57;15.30;67.80
37658;DHT22;23500;53.268;8.308;2023-02-04T02:13:22;15.20;67.20
37658;DHT22;23500;53.268;8.308;2023-02-04T02:15:48;15.20;67.60
37658;DHT22;23500;53.268;8.308;2023-02-04T02:18:14;15.20;67.30
37658;DHT22;23500;53.268;8.308;2023-02-04T02:20:42;15.20;67.60
37658;DHT22;23500;53.268;8.308;2023-02-04T02:23:19;15.20;67.60
37658;DHT22;23500;53.268;8.308;2023-02-04T02:25:48;15.20;67.90
37658;DHT22;23500;53.268;8.308;2023-02-04T02:28:17;15.20;67.80
37658;DHT22;23500;53.268;8.308;2023-02-04T02:30:44;15.20;67.80
37658;DHT22;23500;53.268;8.308;2023-02-04T02:33:14;15.20;67.80
37658;DHT22;23500;53.268;8.308;2023-02-04T02:35:42;15.20;67.90
37658;DHT22;23500;53.268;8.308;2023-02-04T02:38:11;15.10;67.60
37658;DHT22;23500;53.268;8.308;2023-02-04T02:40:37;15.10;68.10
37658;DHT22;23500;53.268;8.308;2023-02-04T02:43:03;15.10;67.80
37658;DHT22;23500;53.268;8.308;2023-02-04T02:45:30;15.10;67.80
37658;DHT22;23500;53.268;8.308;2023-02-04T02:47:59;15.10;68.00
37658;DHT22;23500;53.268;8.308;2023-02-04T02:50:27;15.10;68.10
37658;DHT22;23500;53.268;8.308;2023-02-04T02:52:54;15.10;68.00
37658;DHT22;23500;53.268;8.308;2023-02-04T02:55:22;15.00;67.90
37658;DHT22;23500;53.268;8.308;2023-02-04T02:57:50;15.10;68.20
37658;DHT22;23500;53.268;8.308;2023-02-04T03:00:27;15.00;68.40
37658;DHT22;23500;53.268;8.308;2023-02-04T03:03:05;15.00;68.40
37658;DHT22;23500;53.268;8.308;2023-02-04T03:05:36;15.00;68.10
37658;DHT22;23500;53.268;8.308;2023-02-04T03:08:05;15.00;67.90
37658;DHT22;23500;53.268;8.308;2023-02-04T03:10:32;15.00;67.70
37658;DHT22;23500;53.268;8.308;2023-02-04T03:12:58;15.00;67.70
37658;DHT22;23500;53.268;8.308;2023-02-04T03:15:24;15.00;67.50
37658;DHT22;23500;53.268;8.308;2023-02-04T03:17:50;15.00;68.00
37658;DHT22;23500;53.268;8.308;2023-02-04T03:20:22;15.00;67.70
37658;DHT22;23500;53.268;8.308;2023-02-04T03:22:48;14.90;67.70
37658;DHT22;23500;53.268;8.308;2023-02-04T03:25:14;14.90;68.10
37658;DHT22;23500;53.268;8.308;2023-02-04T03:27:40;14.90;68.00
37658;DHT22;23500;53.268;8.308;2023-02-04T03:30:06;14.90;67.80
37658;DHT22;23500;53.268;8.308;2023-02-04T03:32:33;14.90;68.20
37658;DHT22;23500;53.268;8.308;2023-02-04T03:34:59;14.90;68.00
37658;DHT22;23500;53.268;8.308;2023-02-04T03:37:25;14.80;68.00
37658;DHT22;23500;53.268;8.308;2023-02-04T03:39:50;14.90;68.00
37658;DHT22;23500;53.268;8.308;2023-02-04T03:42:16;14.90;68.30
37658;DHT22;23500;53.268;8.308;2023-02-04T03:44:42;14.80;67.80
37658;DHT22;23500;53.268;8.308;2023-02-04T03:47:08;14.80;68.10
37658;DHT22;23500;53.268;8.308;2023-02-04T03:49:33;14.80;68.30
37658;DHT22;23500;53.268;8.308;2023-02-04T03:52:01;14.80;68.10
37658;DHT22;23500;53.268;8.308;2023-02-04T03:54:26;14.80;68.10
37658;DHT22;23500;53.268;8.308;2023-02-04T03:56:52;14.80;68.10
37658;DHT22;23500;53.268;8.308;2023-02-04T03:59:17;14.70;68.10
37658;DHT22;23500;53.268;8.308;2023-02-04T04:01:43;14.80;68.30
37658;DHT22;23500;53.268;8.308;2023-02-04T04:04:09;14.70;68.20
37658;DHT22;23500;53.268;8.308;2023-02-04T04:06:34;14.70;68.50
37658;DHT22;23500;53.268;8.308;2023-02-04T04:09:00;14.70;68.70
37658;DHT22;23500;53.268;8.308;2023-02-04T04:11:26;14.70;68.60
37658;DHT22;23500;53.268;8.308;2023-02-04T04:13:51;14.70;68.50
37658;DHT22;23500;53.268;8.308;2023-02-04T04:16:17;14.70;68.50
37658;DHT22;23500;53.268;8.308;2023-02-04T04:18:45;14.70;68.20
37658;DHT22;23500;53.268;8.308;2023-02-04T04:21:10;14.70;68.50
37658;DHT22;23500;53.268;8.308;2023-02-04T04:23:36;14.70;68.70
37658;DHT22;23500;53.268;8.308;2023-02-04T04:26:02;14.70;68.60
37658;DHT22;23500;53.268;8.308;2023-02-04T04:28:28;14.70;68.80
37658;DHT22;23500;53.268;8.308;2023-02-04T04:30:53;14.60;68.70
37658;DHT22;23500;53.268;8.308;2023-02-04T04:33:19;14.60;68.80
37658;DHT22;23500;53.268;8.308;2023-02-04T04:35:45;14.60;68.90
37658;DHT22;23500;53.268;8.308;2023-02-04T04:38:10;14.60;69.00
37658;DHT22;23500;53.268;8.308;2023-02-04T04:40:36;14.60;68.80
37658;DHT22;23500;53.268;8.308;2023-02-04T04:43:02;14.60;68.80
37658;DHT22;23500;53.268;8.308;2023-02-04T04:45:28;14.60;68.90
37658;DHT22;23500;53.268;8.308;2023-02-04T04:47:53;14.60;69.10
37658;DHT22;23500;53.268;8.308;2023-02-04T04:50:19;14.60;69.10
37658;DHT22;23500;53.268;8.308;2023-02-04T04:52:45;14.60;69.20
37658;DHT22;23500;53.268;8.308;2023-02-04T04:55:10;14.60;69.10
37658;DHT22;23500;53.268;8.308;2023-02-04T04:57:36;14.50;68.90
37658;DHT22;23500;53.268;8.308;2023-02-04T05:00:03;14.50;69.10
37658;DHT22;23500;53.268;8.308;2023-02-04T05:02:28;14.50;68.70
37658;DHT22;23500;53.268;8.308;2023-02-04T05:04:54;14.50;68.80
37658;DHT22;23500;53.268;8.308;2023-02-04T05:07:20;14.50;68.80
37658;DHT22;23500;53.268;8.308;2023-02-04T05:09:45;14.50;69.00
37658;DHT22;23500;53.268;8.308;2023-02-04T05:12:11;14.50;69.00
37658;DHT22;23500;53.268;8.308;2023-02-04T05:14:37;14.50;69.10
37658;DHT22;23500;53.268;8.308;2023-02-04T05:17:02;14.50;69.20
37658;DHT22;23500;53.268;8.308;2023-02-04T05:19:28;14.50;68.80
37658;DHT22;23500;53.268;8.308;2023-02-04T05:21:53;14.50;68.70
37658;DHT22;23500;53.268;8.308;2023-02-04T05:24:19;14.50;68.50
37658;DHT22;23500;53.268;8.308;2023-02-04T05:26:45;14.50;69.10
37658;DHT22;23500;53.268;8.308;2023-02-04T05:29:10;14.40;68.80
37658;DHT22;23500;53.268;8.308;2023-02-04T05:31:36;14.50;68.70
37658;DHT22;23500;53.268;8.308;2023-02-04T05:34:02;14.40;68.80
37658;DHT22;23500;53.268;8.308;2023-02-04T05:36:27;14.40;68.80
37658;DHT22;23500;53.268;8.308;2023-02-04T05:38:53;14.40;68.80
37658;DHT22;23500;53.268;8.308;2023-02-04T05:41:19;14.40;69.20
37658;DHT22;23500;53.268;8.308;2023-02-04T05:43:44;14.40;69.00
37658;DHT22;23500;53.268;8.308;2023-02-04T05:46:10;14.40;69.20
37658;DHT22;23500;53.268;8.308;2023-02-04T05:48:36;14.40;68.80
37658;DHT22;23500;53.268;8.308;2023-02-04T05:51:02;14.40;68.10
37658;DHT22;23500;53.268;8.308;2023-02-04T05:53:27;14.50;68.00
37658;DHT22;23500;53.268;8.308;2023-02-04T05:55:53;14.60;68.60
37658;DHT22;23500;53.268;8.308;2023-02-04T05:58:18;14.70;68.60
37658;DHT22;23500;53.268;8.308;2023-02-04T06:00:44;14.80;68.70
37658;DHT22;23500;53.268;8.308;2023-02-04T06:03:10;15.00;68.70
37658;DHT22;23500;53.268;8.308;2023-02-04T06:05:35;15.10;68.70
37658;DHT22;23500;53.268;8.308;2023-02-04T06:08:01;15.70;69.00
37658;DHT22;23500;53.268;8.308;2023-02-04T06:10:27;16.90;65.20
37658;DHT22;23500;53.268;8.308;2023-02-04T06:12:52;18.20;60.90
37658;DHT22;23500;53.268;8.308;2023-02-04T06:15:18;19.40;57.50
37658;DHT22;23500;53.268;8.308;2023-02-04T06:17:44;20.40;55.30
37658;DHT22;23500;53.268;8.308;2023-02-04T06:20:12;21.10;53.40
37658;DHT22;23500;53.268;8.308;2023-02-04T06:22:38;21.80;51.80
37658;DHT22;23500;53.268;8.308;2023-02-04T06:25:04;22.40;50.20
37658;DHT22;23500;53.268;8.308;2023-02-04T06:27:30;22.90;49.30
37658;DHT22;23500;53.268;8.308;2023-02-04T06:29:55;23.20;48.50
37658;DHT22;23500;53.268;8.308;2023-02-04T06:32:22;23.40;48.10
37658;DHT22;23500;53.268;8.308;2023-02-04T06:34:48;23.30;48.30
37658;DHT22;23500;53.268;8.308;2023-02-04T06:37:14;23.10;48.60
37658;DHT22;23500;53.268;8.308;2023-02-04T06:39:41;22.80;49.10
37658;DHT22;23500;53.268;8.308;2023-02-04T06:42:08;22.50;49.70
37658;DHT22;23500;53.268;8.308;2023-02-04T06:44:33;22.20;50.30
37658;DHT22;23500;53.268;8.308;2023-02-04T06:46:59;21.80;51.10
37658;DHT22;23500;53.268;8.308;2023-02-04T06:49:25;21.40;52.00
37658;DHT22;23500;53.268;8.308;2023-02-04T06:51:51;21.00;52.60
37658;DHT22;23500;53.268;8.308;2023-02-04T06:54:17;20.70;53.40
37658;DHT22;23500;53.268;8.308;2023-02-04T06:56:42;20.30;54.30
37658;DHT22;23500;53.268;8.308;2023-02-04T06:59:09;20.00;54.40
37658;DHT22;23500;53.268;8.308;2023-02-04T07:01:34;19.70;54.50
37658;DHT22;23500;53.268;8.308;2023-02-04T07:04:01;19.40;54.20
37658;DHT22;23500;53.268;8.308;2023-02-04T07:06:26;19.20;54.30
37658;DHT22;23500;53.268;8.308;2023-02-04T07:08:52;18.90;53.50
37658;DHT22;23500;53.268;8.308;2023-02-04T07:11:17;18.70;53.90
37658;DHT22;23500;53.268;8.308;2023-02-04T07:13:43;18.40;54.50
37658;DHT22;23500;53.268;8.308;2023-02-04T07:16:09;18.20;55.10
37658;DHT22;23500;53.268;8.308;2023-02-04T07:18:34;18.00;55.90
37658;DHT22;23500;53.268;8.308;2023-02-04T07:21:00;17.80;56.50
37658;DHT22;23500;53.268;8.308;2023-02-04T07:23:26;17.60;57.30
37658;DHT22;23500;53.268;8.308;2023-02-04T07:25:53;17.40;57.80
37658;DHT22;23500;53.268;8.308;2023-02-04T07:28:20;17.30;58.00
37658;DHT22;23500;53.268;8.308;2023-02-04T07:30:46;17.20;58.30
37658;DHT22;23500;53.268;8.308;2023-02-04T07:33:12;17.00;58.50
37658;DHT22;23500;53.268;8.308;2023-02-04T07:35:37;17.00;58.80
37658;DHT22;23500;53.268;8.308;2023-02-04T07:38:04;16.90;58.50
37658;DHT22;23500;53.268;8.308;2023-02-04T07:40:29;16.80;58.40
37658;DHT22;23500;53.268;8.308;2023-02-04T07:42:55;16.80;58.80
37658;DHT22;23500;53.268;8.308;2023-02-04T07:45:20;16.70;58.70
37658;DHT22;23500;53.268;8.308;2023-02-04T07:47:46;16.70;58.80
37658;DHT22;23500;53.268;8.308;2023-02-04T07:50:12;16.60;59.60
37658;DHT22;23500;53.268;8.308;2023-02-04T07:52:38;16.60;60.40
37658;DHT22;23500;53.268;8.308;2023-02-04T07:55:04;17.10;63.20
37658;DHT22;23500;53.268;8.308;2023-02-04T07:57:30;17.90;60.60
37658;DHT22;23500;53.268;8.308;2023-02-04T07:59:56;18.60;58.80
37658;DHT22;23500;53.268;8.308;2023-02-04T08:02:21;19.20;57.30
37658;DHT22;23500;53.268;8.308;2023-02-04T08:04:47;19.60;56.20
37658;DHT22;23500;53.268;8.308;2023-02-04T08:07:13;19.80;55.70
37658;DHT22;23500;53.268;8.308;2023-02-04T08:09:38;19.80;55.60
37658;DHT22;23500;53.268;8.308;2023-02-04T08:12:04;19.70;55.60
37658;DHT22;23500;53.268;8.308;2023-02-04T08:14:30;19.60;55.80
37658;DHT22;23500;53.268;8.308;2023-02-04T08:16:55;19.50;56.10
37658;DHT22;23500;53.268;8.308;2023-02-04T08:19:21;19.30;56.30
37658;DHT22;23500;53.268;8.308;2023-02-04T08:21:47;19.10;54.80
37658;DHT22;23500;53.268;8.308;2023-02-04T08:24:14;18.90;55.30
37658;DHT22;23500;53.268;8.308;2023-02-04T08:26:40;18.70;55.30
37658;DHT22;23500;53.268;8.308;2023-02-04T08:29:07;18.50;55.80
37658;DHT22;23500;53.268;8.308;2023-02-04T08:31:33;18.40;56.50
37658;DHT22;23500;53.268;8.308;2023-02-04T08:33:59;18.20;56.60
37658;DHT22;23500;53.268;8.308;2023-02-04T08:36:24;18.10;56.40
37658;DHT22;23500;53.268;8.308;2023-02-04T08:38:50;18.00;55.70
37658;DHT22;23500;53.268;8.308;2023-02-04T08:41:16;17.90;55.60
37658;DHT22;23500;53.268;8.308;2023-02-04T08:43:41;17.80;55.90
37658;DHT22;23500;53.268;8.308;2023-02-04T08:46:07;17.60;56.00
37658;DHT22;23500;53.268;8.308;2023-02-04T08:48:33;17.50;56.30
37658;DHT22;23500;53.268;8.308;2023-02-04T08:50:58;17.40;56.70
37658;DHT22;23500;53.268;8.308;2023-02-04T08:53:24;17.40;57.10
37658;DHT22;23500;53.268;8.308;2023-02-04T08:55:50;17.30;57.70
37658;DHT22;23500;53.268;8.308;2023-02-04T08:58:15;17.20;58.10
37658;DHT22;23500;53.268;8.308;2023-02-04T09:00:41;17.20;58.20
37658;DHT22;23500;53.268;8.308;2023-02-04T09:03:06;17.20;61.80
37658;DHT22;23500;53.268;8.308;2023-02-04T09:05:32;17.60;61.00
37658;DHT22;23500;53.268;8.308;2023-02-04T09:07:58;17.90;60.00
37658;DHT22;23500;53.268;8.308;2023-02-04T09:10:24;18.10;59.10
37658;DHT22;23500;53.268;8.308;2023-02-04T09:12:49;18.30;58.60
37658;DHT22;23500;53.268;8.308;2023-02-04T09:15:21;18.50;58.40
37658;DHT22;23500;53.268;8.308;2023-02-04T09:17:48;18.60;57.90
37658;DHT22;23500;53.268;8.308;2023-02-04T09:20:14;18.60;58.00
37658;DHT22;23500;53.268;8.308;2023-02-04T09:22:40;18.60;57.90
37658;DHT22;23500;53.268;8.308;2023-02-04T09:25:06;18.50;58.00
37658;DHT22;23500;53.268;8.308;2023-02-04T09:27:31;18.50;57.20
37658;DHT22;23500;53.268;8.308;2023-02-04T09:29:57;18.40;57.40
37658;DHT22;23500;53.268;8.308;2023-02-04T09:32:23;18.30;57.10
37658;DHT22;23500;53.268;8.308;2023-02-04T09:34:48;18.20;56.90
37658;DHT22;23500;53.268;8.308;2023-02-04T09:37:14;18.10;57.00
37658;DHT22;23500;53.268;8.308;2023-02-04T09:39:40;18.10;56.80
37658;DHT22;23500;53.268;8.308;2023-02-04T09:42:06;18.00;57.80
37658;DHT22;23500;53.268;8.308;2023-02-04T09:44:33;17.90;57.40
37658;DHT22;23500;53.268;8.308;2023-02-04T09:47:00;17.80;58.00
37658;DHT22;23500;53.268;8.308;2023-02-04T09:49:26;17.80;58.00
37658;DHT22;23500;53.268;8.308;2023-02-04T09:51:53;17.70;58.00
37658;DHT22;23500;53.268;8.308;2023-02-04T09:54:20;17.50;58.40
37658;DHT22;23500;53.268;8.308;2023-02-04T09:56:47;17.50;58.70
37658;DHT22;23500;53.268;8.308;2023-02-04T09:59:22;17.40;59.10
37658;DHT22;23500;53.268;8.308;2023-02-04T10:02:29;17.30;61.10
37658;DHT22;23500;53.268;8.308;2023-02-04T10:04:56;17.30;61.20
37658;DHT22;23500;53.268;8.308;2023-02-04T10:07:23;17.30;61.20
37658;DHT22;23500;53.268;8.308;2023-02-04T10:09:51;17.60;62.60
37658;DHT22;23500;53.268;8.308;2023-02-04T10:12:19;18.10;60.20
37658;DHT22;23500;53.268;8.308;2023-02-04T10:14:45;18.40;59.40
37658;DHT22;23500;53.268;8.308;2023-02-04T10:17:11;18.60;58.80
37658;DHT22;23500;53.268;8.308;2023-02-04T10:19:39;18.80;58.50
37658;DHT22;23500;53.268;8.308;2023-02-04T10:22:15;18.80;58.30
37658;DHT22;23500;53.268;8.308;2023-02-04T10:24:41;18.90;58.00
37658;DHT22;23500;53.268;8.308;2023-02-04T10:27:09;18.90;58.00
37658;DHT22;23500;53.268;8.308;2023-02-04T10:29:35;18.80;58.10
37658;DHT22;23500;53.268;8.308;2023-02-04T10:32:01;18.70;57.70
37658;DHT22;23500;53.268;8.308;2023-02-04T10:34:36;18.60;57.60
37658;DHT22;23500;53.268;8.308;2023-02-04T10:37:24;18.50;57.70
37658;DHT22;23500;53.268;8.308;2023-02-04T10:39:50;18.30;57.60
37658;DHT22;23500;53.268;8.308;2023-02-04T10:42:21;18.30;57.40
37658;DHT22;23500;53.268;8.308;2023-02-04T10:44:47;18.20;57.50
37658;DHT22;23500;53.268;8.308;2023-02-04T10:47:19;18.10;57.50
37658;DHT22;23500;53.268;8.308;2023-02-04T10:52:19;17.90;57.80
37658;DHT22;23500;53.268;8.308;2023-02-04T10:54:46;17.80;57.30
37658;DHT22;23500;53.268;8.308;2023-02-04T10:57:28;17.70;57.60
37658;DHT22;23500;53.268;8.308;2023-02-04T10:59:59;17.60;58.60
37658;DHT22;23500;53.268;8.308;2023-02-04T11:07:38;17.40;60.10
37658;DHT22;23500;53.268;8.308;2023-02-04T11:10:04;17.40;59.20
37658;DHT22;23500;53.268;8.308;2023-02-04T11:15:46;17.40;60.30
37658;DHT22;23500;53.268;8.308;2023-02-04T11:18:42;17.40;60.70
37658;DHT22;23500;53.268;8.308;2023-02-04T11:20:58;17.40;60.60
37658;DHT22;23500;53.268;8.308;2023-02-04T11:26:15;17.40;59.50
37658;DHT22;23500;53.268;8.308;2023-02-04T11:39:46;17.40;59.30
37658;DHT22;23500;53.268;8.308;2023-02-04T11:42:26;17.30;59.10
37658;DHT22;23500;53.268;8.308;2023-02-04T11:47:25;17.30;59.30
37658;DHT22;23500;53.268;8.308;2023-02-04T11:49:57;17.30;59.80
37658;DHT22;23500;53.268;8.308;2023-02-04T11:52:25;17.20;60.40
37658;DHT22;23500;53.268;8.308;2023-02-04T11:54:57;17.20;60.60
37658;DHT22;23500;53.268;8.308;2023-02-04T11:57:23;17.20;60.90
37658;DHT22;23500;53.268;8.308;2023-02-04T11:59:49;17.20;60.30
37658;DHT22;23500;53.268;8.308;2023-02-04T12:02:17;17.20;60.50
37658;DHT22;23500;53.268;8.308;2023-02-04T12:04:57;17.20;61.30
37658;DHT22;23500;53.268;8.308;2023-02-04T12:07:33;17.20;61.70
37658;DHT22;23500;53.268;8.308;2023-02-04T12:10:13;17.20;61.50
37658;DHT22;23500;53.268;8.308;2023-02-04T12:15:21;17.20;61.70
37658;DHT22;23500;53.268;8.308;2023-02-04T12:18:03;17.20;60.60
37658;DHT22;23500;53.268;8.308;2023-02-04T12:20:33;17.20;61.30
37658;DHT22;23500;53.268;8.308;2023-02-04T12:22:59;17.30;60.70
37658;DHT22;23500;53.268;8.308;2023-02-04T12:25:24;17.30;61.20
37658;DHT22;23500;53.268;8.308;2023-02-04T12:27:52;17.30;60.50
37658;DHT22;23500;53.268;8.308;2023-02-04T12:30:20;17.30;60.70
37658;DHT22;23500;53.268;8.308;2023-02-04T12:32:46;17.30;60.90
37658;DHT22;23500;53.268;8.308;2023-02-04T12:35:12;17.30;60.30
37658;DHT22;23500;53.268;8.308;2023-02-04T12:37:37;17.30;60.00
37658;DHT22;23500;53.268;8.308;2023-02-04T12:40:03;17.30;60.00
37658;DHT22;23500;53.268;8.308;2023-02-04T12:42:29;17.30;60.70
37658;DHT22;23500;53.268;8.308;2023-02-04T12:44:55;17.30;59.90
37658;DHT22;23500;53.268;8.308;2023-02-04T12:47:20;17.30;59.20
37658;DHT22;23500;53.268;8.308;2023-02-04T12:49:46;17.20;59.70
37658;DHT22;23500;53.268;8.308;2023-02-04T12:52:12;17.20;59.60
37658;DHT22;23500;53.268;8.308;2023-02-04T12:54:38;17.20;60.30
37658;DHT22;23500;53.268;8.308;2023-02-04T12:57:04;17.20;60.40
37658;DHT22;23500;53.268;8.308;2023-02-04T12:59:30;17.20;60.90
37658;DHT22;23500;53.268;8.308;2023-02-04T13:01:56;17.20;60.80
37658;DHT22;23500;53.268;8.308;2023-02-04T13:04:22;17.20;61.20
37658;DHT22;23500;53.268;8.308;2023-02-04T13:06:48;17.20;61.80
37658;DHT22;23500;53.268;8.308;2023-02-04T13:09:13;17.30;61.90
37658;DHT22;23500;53.268;8.308;2023-02-04T13:11:39;17.30;62.10
37658;DHT22;23500;53.268;8.308;2023-02-04T13:14:05;17.30;61.80
37658;DHT22;23500;53.268;8.308;2023-02-04T13:16:31;17.30;61.60
37658;DHT22;23500;53.268;8.308;2023-02-04T13:18:56;17.30;61.40
37658;DHT22;23500;53.268;8.308;2023-02-04T13:21:22;17.30;61.50
37658;DHT22;23500;53.268;8.308;2023-02-04T13:23:47;17.40;61.30
37658;DHT22;23500;53.268;8.308;2023-02-04T13:26:13;17.40;61.00
37658;DHT22;23500;53.268;8.308;2023-02-04T13:28:39;17.40;60.80
37658;DHT22;23500;53.268;8.308;2023-02-04T13:31:04;17.40;60.30
37658;DHT22;23500;53.268;8.308;2023-02-04T13:33:30;17.40;59.90
37658;DHT22;23500;53.268;8.308;2023-02-04T13:35:56;17.40;59.20
37658;DHT22;23500;53.268;8.308;2023-02-04T13:38:22;17.40;59.70
37658;DHT22;23500;53.268;8.308;2023-02-04T13:40:48;17.30;60.30
37658;DHT22;23500;53.268;8.308;2023-02-04T13:43:13;17.30;60.20
37658;DHT22;23500;53.268;8.308;2023-02-04T13:45:39;17.30;59.80
37658;DHT22;23500;53.268;8.308;2023-02-04T13:48:11;17.30;60.30
37658;DHT22;23500;53.268;8.308;2023-02-04T13:50:37;17.30;61.00
37658;DHT22;23500;53.268;8.308;2023-02-04T13:53:03;17.20;60.80
37658;DHT22;23500;53.268;8.308;2023-02-04T13:55:28;17.20;60.60
37658;DHT22;23500;53.268;8.308;2023-02-04T13:57:54;17.20;60.90
37658;DHT22;23500;53.268;8.308;2023-02-04T14:00:19;17.20;60.80
37658;DHT22;23500;53.268;8.308;2023-02-04T14:02:45;17.20;61.50
37658;DHT22;23500;53.268;8.308;2023-02-04T14:05:13;17.20;61.50
37658;DHT22;23500;53.268;8.308;2023-02-04T14:07:39;17.20;61.70
37658;DHT22;23500;53.268;8.308;2023-02-04T14:10:05;17.20;61.20
37658;DHT22;23500;53.268;8.308;2023-02-04T14:12:31;17.30;62.30
37658;DHT22;23500;53.268;8.308;2023-02-04T14:14:56;17.30;61.80
37658;DHT22;23500;53.268;8.308;2023-02-04T14:17:22;17.40;62.40
37658;DHT22;23500;53.268;8.308;2023-02-04T14:19:47;17.40;61.70
37658;DHT22;23500;53.268;8.308;2023-02-04T14:22:13;17.40;61.40
37658;DHT22;23500;53.268;8.308;2023-02-04T14:24:39;17.50;61.20
37658;DHT22;23500;53.268;8.308;2023-02-04T14:27:07;17.40;61.10
37658;DHT22;23500;53.268;8.308;2023-02-04T14:29:34;17.40;60.20
37658;DHT22;23500;53.268;8.308;2023-02-04T14:32:00;17.40;60.60
37658;DHT22;23500;53.268;8.308;2023-02-04T14:34:26;17.40;59.90
37658;DHT22;23500;53.268;8.308;2023-02-04T14:36:51;17.50;60.90
37658;DHT22;23500;53.268;8.308;2023-02-04T14:39:17;17.40;61.90
37658;DHT22;23500;53.268;8.308;2023-02-04T14:41:42;17.40;60.90
37658;DHT22;23500;53.268;8.308;2023-02-04T14:44:08;17.40;59.70
37658;DHT22;23500;53.268;8.308;2023-02-04T14:46:34;17.40;59.90
37658;DHT22;23500;53.268;8.308;2023-02-04T14:49:00;17.30;60.00
37658;DHT22;23500;53.268;8.308;2023-02-04T14:51:26;17.30;61.10
37658;DHT22;23500;53.268;8.308;2023-02-04T14:53:52;17.30;60.30
37658;DHT22;23500;53.268;8.308;2023-02-04T14:56:18;17.20;60.90
37658;DHT22;23500;53.268;8.308;2023-02-04T14:58:44;17.20;60.70
37658;DHT22;23500;53.268;8.308;2023-02-04T15:01:09;17.10;61.10
37658;DHT22;23500;53.268;8.308;2023-02-04T15:03:35;17.10;60.60
37658;DHT22;23500;53.268;8.308;2023-02-04T15:06:01;17.10;61.10
37658;DHT22;23500;53.268;8.308;2023-02-04T15:08:26;17.10;61.90
37658;DHT22;23500;53.268;8.308;2023-02-04T15:10:52;17.10;61.80
37658;DHT22;23500;53.268;8.308;2023-02-04T15:13:17;17.10;62.50
37658;DHT22;23500;53.268;8.308;2023-02-04T15:15:43;17.10;62.10
37658;DHT22;23500;53.268;8.308;2023-02-04T15:18:09;17.20;62.50
37658;DHT22;23500;53.268;8.308;2023-02-04T15:20:34;17.20;62.40
37658;DHT22;23500;53.268;8.308;2023-02-04T15:23:00;17.20;62.50
37658;DHT22;23500;53.268;8.308;2023-02-04T15:25:26;17.30;62.10
37658;DHT22;23500;53.268;8.308;2023-02-04T15:27:51;17.30;62.50
37658;DHT22;23500;53.268;8.308;2023-02-04T15:30:17;17.30;61.30
37658;DHT22;23500;53.268;8.308;2023-02-04T15:32:43;17.30;61.20
37658;DHT22;23500;53.268;8.308;2023-02-04T15:35:11;17.30;61.60
37658;DHT22;23500;53.268;8.308;2023-02-04T15:37:36;17.30;60.90
37658;DHT22;23500;53.268;8.308;2023-02-04T15:40:03;17.30;60.70
37658;DHT22;23500;53.268;8.308;2023-02-04T15:42:28;17.30;60.30
37658;DHT22;23500;53.268;8.308;2023-02-04T15:44:54;17.30;60.70
37658;DHT22;23500;53.268;8.308;2023-02-04T15:47:20;17.20;60.60
37658;DHT22;23500;53.268;8.308;2023-02-04T15:49:45;17.20;60.20
37658;DHT22;23500;53.268;8.308;2023-02-04T15:52:11;17.20;60.90
37658;DHT22;23500;53.268;8.308;2023-02-04T15:54:37;17.10;61.20
37658;DHT22;23500;53.268;8.308;2023-02-04T15:57:02;17.10;61.10